createdAt,value
2019-03-31T00:02:07.197Z,11.30
2019-03-31T00:04:35.634Z,11.30
2019-03-31T00:07:04.058Z,11.30
2019-03-31T00:09:32.478Z,11.30
2019-03-31T00:12:00.983Z,11.30
2019-03-31T00:14:29.392Z,11.30
2019-03-31T00:16:57.829Z,11.30
2019-03-31T00:19:26.281Z,11.30
2019-03-31T00:21:54.757Z,11.30
2019-03-31T00:24:23.191Z,11.30
2019-03-31T00:26:51.694Z,11.30
2019-03-31T00:29:20.113Z,11.30
2019-03-31T00:31:48.530Z,11.20
2019-03-31T00:34:16.938Z,11.20
2019-03-31T00:36:45.401Z,11.10
2019-03-31T00:39:13.829Z,11.10
2019-03-31T00:41:42.258Z,11.10
2019-03-31T00:44:10.672Z,11.00
2019-03-31T00:46:39.085Z,11.00
2019-03-31T00:49:07.497Z,10.90
2019-03-31T00:51:35.926Z,10.80
2019-03-31T00:54:04.330Z,10.80
2019-03-31T00:56:32.753Z,10.70
2019-03-31T00:59:01.174Z,10.70
2019-03-31T01:01:36.658Z,10.60
2019-03-31T01:04:05.960Z,10.60
2019-03-31T01:06:35.916Z,10.50
2019-03-31T01:09:09.067Z,10.50
2019-03-31T01:11:37.503Z,10.40
2019-03-31T01:14:05.997Z,10.50
2019-03-31T01:16:34.485Z,10.40
2019-03-31T01:19:04.648Z,10.40
2019-03-31T01:21:33.067Z,10.50
2019-03-31T01:24:01.563Z,10.50
2019-03-31T01:26:29.980Z,10.50
2019-03-31T01:28:58.864Z,10.40
2019-03-31T01:31:28.602Z,10.40
2019-03-31T01:33:57.527Z,10.50
2019-03-31T01:36:25.929Z,10.50
2019-03-31T01:38:54.356Z,10.50
2019-03-31T01:41:22.766Z,10.50
2019-03-31T01:43:51.499Z,10.50
2019-03-31T01:46:21.641Z,10.50
2019-03-31T01:48:50.066Z,10.50
2019-03-31T01:51:18.485Z,10.50
2019-03-31T01:53:46.906Z,10.40
2019-03-31T01:56:15.427Z,10.40
2019-03-31T01:58:44.247Z,10.40
2019-03-31T02:01:14.735Z,10.40
2019-03-31T02:03:43.428Z,10.40
2019-03-31T02:06:12.145Z,10.40
2019-03-31T02:08:40.915Z,10.50
2019-03-31T02:11:09.332Z,10.40
2019-03-31T02:13:37.763Z,10.50
2019-03-31T02:16:06.194Z,10.40
2019-03-31T02:18:34.618Z,10.40
2019-03-31T02:21:03.211Z,10.40
2019-03-31T02:23:31.706Z,10.30
2019-03-31T02:26:00.187Z,10.30
2019-03-31T02:28:28.634Z,10.30
2019-03-31T02:30:57.046Z,10.20
2019-03-31T02:33:25.837Z,10.20
2019-03-31T02:35:54.295Z,10.20
2019-03-31T02:38:22.761Z,10.10
2019-03-31T02:40:51.219Z,10.10
2019-03-31T02:43:19.629Z,10.00
2019-03-31T02:45:48.634Z,10.00
2019-03-31T02:48:17.086Z,10.00
2019-03-31T02:50:48.285Z,9.90
2019-03-31T02:53:17.096Z,9.90
2019-03-31T02:55:45.934Z,9.90
2019-03-31T02:58:15.555Z,9.80
2019-03-31T03:00:44.944Z,9.80
2019-03-31T03:03:34.206Z,9.80
2019-03-31T03:06:04.947Z,9.70
2019-03-31T03:08:36.095Z,9.70
2019-03-31T03:11:04.569Z,9.60
2019-03-31T03:13:35.010Z,9.60
2019-03-31T03:16:09.179Z,9.50
2019-03-31T03:18:37.604Z,9.50
2019-03-31T03:21:06.007Z,9.50
2019-03-31T03:23:34.428Z,9.40
2019-03-31T03:26:02.833Z,9.40
2019-03-31T03:28:31.242Z,9.30
2019-03-31T03:30:59.919Z,9.30
2019-03-31T03:33:28.753Z,9.30
2019-03-31T03:35:57.231Z,9.30
2019-03-31T03:38:25.679Z,9.30
2019-03-31T03:40:54.087Z,9.20
2019-03-31T03:43:22.495Z,9.20
2019-03-31T03:45:50.930Z,9.20
2019-03-31T03:48:19.998Z,9.20
2019-03-31T03:50:48.403Z,9.20
2019-03-31T03:53:16.806Z,9.10
2019-03-31T03:55:45.535Z,9.10
2019-03-31T03:58:14.656Z,9.10
2019-03-31T04:00:43.646Z,9.10
2019-03-31T04:03:28.979Z,9.00
2019-03-31T04:05:42.176Z,9.00
2019-03-31T04:08:10.591Z,9.00
2019-03-31T04:10:44.794Z,9.00
2019-03-31T04:13:13.662Z,8.90
2019-03-31T04:15:42.279Z,8.90
2019-03-31T04:18:10.720Z,8.90
2019-03-31T04:20:39.825Z,8.90
2019-03-31T04:23:08.572Z,8.80
2019-03-31T04:25:37.323Z,8.80
2019-03-31T04:28:05.746Z,8.80
2019-03-31T04:30:34.164Z,8.80
2019-03-31T04:33:02.670Z,8.80
2019-03-31T04:35:31.170Z,8.80
2019-03-31T04:37:59.653Z,8.80
2019-03-31T04:40:28.159Z,8.80
2019-03-31T04:42:56.812Z,8.80
2019-03-31T04:45:25.531Z,8.80
2019-03-31T04:47:53.935Z,8.70
2019-03-31T04:50:22.358Z,8.70
2019-03-31T04:52:51.176Z,8.70
2019-03-31T04:55:19.598Z,8.60
2019-03-31T04:57:48.006Z,8.60
2019-03-31T05:00:16.524Z,8.60
2019-03-31T05:02:45.262Z,8.50
2019-03-31T05:05:13.805Z,8.50
2019-03-31T05:07:42.238Z,8.50
2019-03-31T05:10:10.724Z,8.50
2019-03-31T05:12:39.145Z,8.50
2019-03-31T05:15:07.631Z,8.40
2019-03-31T05:17:36.106Z,8.40
2019-03-31T05:20:05.902Z,8.40
2019-03-31T05:22:34.300Z,8.40
2019-03-31T05:25:02.797Z,8.30
2019-03-31T05:27:31.287Z,8.30
2019-03-31T05:29:59.723Z,8.30
2019-03-31T05:32:28.119Z,8.30
2019-03-31T05:34:56.542Z,8.20
2019-03-31T05:37:25.241Z,8.20
2019-03-31T05:39:53.641Z,8.20
2019-03-31T05:42:22.051Z,8.30
2019-03-31T05:44:50.467Z,8.20
2019-03-31T05:47:18.884Z,8.30
2019-03-31T05:49:47.285Z,8.30
2019-03-31T05:52:16.695Z,8.30
2019-03-31T05:54:45.104Z,8.40
2019-03-31T05:57:13.512Z,8.40
2019-03-31T05:59:41.960Z,8.40
2019-03-31T06:02:10.493Z,8.50
2019-03-31T06:04:38.998Z,8.60
2019-03-31T06:07:07.705Z,8.80
2019-03-31T06:09:36.116Z,8.90
2019-03-31T06:12:04.525Z,9.10
2019-03-31T06:14:32.939Z,9.20
2019-03-31T06:17:01.442Z,9.40
2019-03-31T06:19:29.839Z,9.40
2019-03-31T06:21:58.274Z,9.50
2019-03-31T06:24:26.770Z,9.60
2019-03-31T06:26:55.185Z,9.70
2019-03-31T06:29:23.585Z,9.80
2019-03-31T06:31:52.058Z,9.80
2019-03-31T06:34:20.469Z,9.90
2019-03-31T06:36:48.916Z,10.00
2019-03-31T06:39:36.639Z,10.20
2019-03-31T06:42:05.123Z,10.30
2019-03-31T06:44:33.542Z,10.50
2019-03-31T06:47:01.984Z,10.60
2019-03-31T06:49:30.540Z,10.70
2019-03-31T06:51:58.992Z,10.70
2019-03-31T06:54:27.775Z,10.80
2019-03-31T06:56:56.193Z,10.90
2019-03-31T06:59:25.531Z,11.00
2019-03-31T07:01:54.007Z,11.20
2019-03-31T07:04:22.462Z,11.50
2019-03-31T07:06:50.888Z,11.80
2019-03-31T07:09:19.333Z,12.10
2019-03-31T07:11:48.688Z,12.50
2019-03-31T07:14:17.382Z,12.90
2019-03-31T07:16:45.787Z,13.30
2019-03-31T07:19:14.212Z,13.70
2019-03-31T07:21:42.690Z,14.10
2019-03-31T07:24:11.707Z,14.50
2019-03-31T07:26:40.138Z,14.90
2019-03-31T07:29:08.775Z,15.30
2019-03-31T07:31:37.209Z,15.70
2019-03-31T07:34:05.622Z,16.00
2019-03-31T07:36:34.040Z,16.40
2019-03-31T07:39:03.064Z,16.70
2019-03-31T07:41:31.918Z,17.10
2019-03-31T07:44:00.867Z,17.30
2019-03-31T07:46:29.295Z,17.60
2019-03-31T07:48:57.694Z,17.80
2019-03-31T07:51:26.095Z,18.10
2019-03-31T07:53:54.570Z,18.40
2019-03-31T07:56:23.025Z,18.70
2019-03-31T07:58:51.442Z,19.00
2019-03-31T08:01:19.857Z,19.30
2019-03-31T08:03:48.269Z,19.60
2019-03-31T08:06:16.665Z,19.90
2019-03-31T08:08:45.327Z,20.20
2019-03-31T08:11:16.927Z,20.40
2019-03-31T08:13:43.877Z,20.60
2019-03-31T08:16:12.377Z,20.80
2019-03-31T08:18:40.804Z,21.00
2019-03-31T08:21:09.205Z,21.20
2019-03-31T08:23:37.649Z,21.40
2019-03-31T08:26:06.131Z,21.60
2019-03-31T08:28:36.184Z,21.70
2019-03-31T08:31:04.681Z,21.80
2019-03-31T08:33:33.310Z,21.90
2019-03-31T08:36:01.724Z,22.10
2019-03-31T08:38:31.159Z,22.30
2019-03-31T08:40:59.729Z,22.50
2019-03-31T08:43:28.166Z,22.80
2019-03-31T08:45:56.585Z,23.00
2019-03-31T08:48:25.012Z,23.20
2019-03-31T08:50:53.412Z,23.30
2019-03-31T08:53:21.903Z,23.50
2019-03-31T08:55:50.316Z,23.80
2019-03-31T08:58:19.079Z,24.00
2019-03-31T09:00:49.137Z,24.30
2019-03-31T09:03:24.507Z,24.50
2019-03-31T09:06:01.551Z,24.60
2019-03-31T09:08:29.866Z,24.90
2019-03-31T09:11:04.123Z,25.00
2019-03-31T09:13:32.560Z,25.30
2019-03-31T09:16:00.986Z,25.60
2019-03-31T09:18:29.411Z,25.80
2019-03-31T09:20:57.816Z,26.10
2019-03-31T09:23:26.244Z,26.30
2019-03-31T09:25:54.735Z,26.50
2019-03-31T09:28:23.196Z,26.80
2019-03-31T09:30:51.707Z,27.00
2019-03-31T09:33:20.206Z,27.20
2019-03-31T09:35:48.690Z,27.40
2019-03-31T09:38:17.111Z,27.60
2019-03-31T09:40:45.522Z,27.60
2019-03-31T09:43:13.965Z,27.70
2019-03-31T09:45:42.412Z,27.60
2019-03-31T09:48:11.058Z,27.50
2019-03-31T09:50:39.468Z,27.50
2019-03-31T09:53:07.910Z,27.30
2019-03-31T09:55:36.594Z,27.10
2019-03-31T09:58:05.123Z,26.70
2019-03-31T10:00:42.496Z,26.30
2019-03-31T10:03:10.900Z,25.90
2019-03-31T10:05:39.330Z,25.40
2019-03-31T10:08:07.749Z,25.00
2019-03-31T10:10:36.318Z,24.70
2019-03-31T10:13:04.763Z,24.40
2019-03-31T10:15:33.240Z,24.20
2019-03-31T10:18:01.649Z,23.90
2019-03-31T10:20:31.564Z,23.70
2019-03-31T10:23:00.280Z,23.30
2019-03-31T10:25:28.705Z,23.00
2019-03-31T10:27:57.121Z,22.60
2019-03-31T10:30:35.909Z,22.20
2019-03-31T10:33:04.956Z,21.80
2019-03-31T10:35:33.436Z,21.50
2019-03-31T10:38:02.255Z,21.10
2019-03-31T10:40:30.995Z,20.80
2019-03-31T10:42:59.398Z,20.40
2019-03-31T10:45:28.236Z,20.20
2019-03-31T10:47:56.665Z,19.90
2019-03-31T10:50:25.236Z,19.70
2019-03-31T10:52:53.642Z,19.50
2019-03-31T10:55:22.070Z,19.30
2019-03-31T10:57:50.483Z,19.10
2019-03-31T11:00:33.986Z,18.90
2019-03-31T11:03:02.494Z,18.80
2019-03-31T11:05:30.921Z,18.70
2019-03-31T11:07:59.393Z,18.70
2019-03-31T11:10:27.852Z,18.70
2019-03-31T11:12:56.333Z,18.80
2019-03-31T11:15:24.756Z,18.80
2019-03-31T11:17:53.154Z,19.00
2019-03-31T11:20:21.639Z,19.10
2019-03-31T11:23:03.856Z,19.40
2019-03-31T11:25:32.288Z,19.60
2019-03-31T11:28:00.701Z,20.00
2019-03-31T11:30:29.209Z,20.40
2019-03-31T11:32:57.623Z,20.90
2019-03-31T11:35:26.048Z,21.30
2019-03-31T11:37:54.458Z,21.80
2019-03-31T11:40:22.922Z,22.20
2019-03-31T11:42:51.333Z,22.50
2019-03-31T11:45:19.832Z,22.90
2019-03-31T11:47:48.936Z,23.10
2019-03-31T11:50:17.515Z,23.30
2019-03-31T11:52:45.953Z,23.40
2019-03-31T11:55:14.650Z,23.60
2019-03-31T11:57:43.070Z,23.70
2019-03-31T12:00:22.355Z,23.90
2019-03-31T12:02:51.052Z,24.00
2019-03-31T12:05:19.478Z,24.20
2019-03-31T12:07:47.907Z,24.20
2019-03-31T12:10:19.663Z,24.30
2019-03-31T12:12:46.602Z,24.20
2019-03-31T12:15:15.007Z,24.10
2019-03-31T12:17:43.640Z,24.10
2019-03-31T12:20:12.261Z,24.00
2019-03-31T12:22:40.674Z,24.00
2019-03-31T12:25:09.269Z,24.00
2019-03-31T12:27:37.763Z,24.00
2019-03-31T12:30:09.262Z,23.80
2019-03-31T12:32:38.644Z,23.60
2019-03-31T12:35:08.477Z,23.30
2019-03-31T12:37:42.805Z,23.00
2019-03-31T12:40:09.503Z,22.50
2019-03-31T12:42:37.920Z,22.10
2019-03-31T12:45:06.501Z,21.90
2019-03-31T12:47:35.329Z,21.70
2019-03-31T12:50:05.657Z,21.70
2019-03-31T12:52:46.146Z,21.70
2019-03-31T12:55:05.171Z,21.70
2019-03-31T12:57:33.574Z,21.80
2019-03-31T13:00:02.014Z,21.90
2019-03-31T13:02:30.490Z,21.90
2019-03-31T13:04:59.960Z,22.10
2019-03-31T13:07:28.509Z,22.10
2019-03-31T13:09:56.933Z,22.10
2019-03-31T13:12:25.365Z,22.00
2019-03-31T13:14:53.822Z,22.00
2019-03-31T13:17:22.240Z,21.90
2019-03-31T13:19:50.647Z,21.70
2019-03-31T13:22:19.070Z,21.60
2019-03-31T13:24:47.487Z,21.40
2019-03-31T13:27:15.965Z,21.20
2019-03-31T13:29:44.469Z,21.10
2019-03-31T13:32:12.900Z,21.00
2019-03-31T13:34:41.355Z,20.80
2019-03-31T13:37:09.798Z,20.70
2019-03-31T13:39:38.465Z,20.60
2019-03-31T13:42:06.898Z,20.40
2019-03-31T13:44:35.346Z,20.20
2019-03-31T13:47:03.838Z,20.00
2019-03-31T13:49:32.248Z,19.90
2019-03-31T13:52:00.740Z,19.70
2019-03-31T13:54:29.172Z,19.60
2019-03-31T13:56:58.243Z,19.50
2019-03-31T13:59:26.801Z,19.40
2019-03-31T14:01:55.215Z,19.30
2019-03-31T14:04:24.110Z,19.30
2019-03-31T14:06:52.545Z,19.20
2019-03-31T14:09:21.071Z,19.10
2019-03-31T14:11:49.515Z,19.10
2019-03-31T14:14:17.957Z,19.10
2019-03-31T14:16:47.120Z,19.00
2019-03-31T14:19:15.560Z,19.00
2019-03-31T14:21:43.977Z,18.90
2019-03-31T14:24:12.424Z,18.80
2019-03-31T14:26:40.840Z,18.70
2019-03-31T14:29:09.273Z,18.60
2019-03-31T14:31:37.660Z,18.50
2019-03-31T14:34:06.078Z,18.50
2019-03-31T14:36:34.786Z,18.50
2019-03-31T14:39:05.641Z,18.40
2019-03-31T14:41:34.536Z,18.40
2019-03-31T14:44:03.049Z,18.40
2019-03-31T14:46:31.500Z,18.40
2019-03-31T14:48:59.923Z,18.40
2019-03-31T14:51:28.399Z,18.40
2019-03-31T14:53:57.742Z,18.40
2019-03-31T14:56:26.172Z,18.40
2019-03-31T14:58:54.583Z,18.40
2019-03-31T15:01:23.001Z,18.40
2019-03-31T15:03:51.594Z,18.40
2019-03-31T15:06:21.141Z,18.30
2019-03-31T15:08:54.683Z,18.40
2019-03-31T15:11:22.007Z,18.30
2019-03-31T15:13:49.879Z,18.30
2019-03-31T15:16:18.287Z,18.30
2019-03-31T15:18:46.706Z,18.30
2019-03-31T15:21:15.122Z,18.20
2019-03-31T15:23:43.650Z,18.20
2019-03-31T15:26:12.063Z,18.10
2019-03-31T15:28:40.467Z,18.00
2019-03-31T15:31:08.878Z,17.90
2019-03-31T15:33:37.305Z,17.90
2019-03-31T15:36:05.973Z,17.80
2019-03-31T15:38:34.395Z,17.70
2019-03-31T15:41:02.788Z,17.60
2019-03-31T15:43:32.164Z,17.50
2019-03-31T15:46:00.569Z,17.40
2019-03-31T15:48:29.079Z,17.30
2019-03-31T15:50:57.867Z,17.20
2019-03-31T15:53:26.297Z,17.20
2019-03-31T15:55:54.702Z,17.10
2019-03-31T15:58:23.111Z,17.10
2019-03-31T16:00:51.790Z,17.10
2019-03-31T16:03:20.205Z,17.00
2019-03-31T16:05:48.629Z,16.90
2019-03-31T16:08:17.349Z,16.90
2019-03-31T16:10:45.766Z,16.80
2019-03-31T16:13:14.216Z,16.80
2019-03-31T16:15:42.691Z,16.70
2019-03-31T16:18:11.111Z,16.70
2019-03-31T16:20:39.538Z,16.70
2019-03-31T16:23:07.937Z,16.60
2019-03-31T16:25:38.001Z,16.60
2019-03-31T16:28:06.407Z,16.50
2019-03-31T16:30:35.865Z,16.50
2019-03-31T16:33:07.027Z,16.40
2019-03-31T16:35:34.542Z,16.40
2019-03-31T16:38:02.978Z,16.40
2019-03-31T16:40:31.478Z,16.30
2019-03-31T16:42:59.888Z,16.20
2019-03-31T16:45:28.757Z,16.20
2019-03-31T16:47:57.213Z,16.10
2019-03-31T16:50:25.629Z,16.00
2019-03-31T16:52:54.079Z,15.90
2019-03-31T16:55:22.645Z,15.80
2019-03-31T16:57:51.071Z,15.80
2019-03-31T17:00:19.786Z,15.70
2019-03-31T17:02:52.161Z,15.60
2019-03-31T17:05:22.440Z,15.60
2019-03-31T17:07:50.918Z,15.50
2019-03-31T17:10:19.333Z,15.50
2019-03-31T17:12:47.782Z,15.50
2019-03-31T17:15:16.381Z,15.40
2019-03-31T17:17:44.813Z,15.30
2019-03-31T17:20:13.796Z,15.30
2019-03-31T17:22:42.270Z,15.20
2019-03-31T17:25:10.854Z,15.10
2019-03-31T17:27:39.278Z,15.10
2019-03-31T17:30:08.229Z,15.00
2019-03-31T17:32:36.624Z,14.90
2019-03-31T17:35:05.971Z,14.80
2019-03-31T17:37:34.462Z,14.70
2019-03-31T17:40:06.209Z,14.70
2019-03-31T17:42:33.979Z,14.60
2019-03-31T17:45:02.424Z,14.50
2019-03-31T17:47:30.831Z,14.50
2019-03-31T17:49:59.350Z,14.40
2019-03-31T17:52:27.791Z,14.30
2019-03-31T17:54:56.216Z,14.20
2019-03-31T17:57:24.613Z,14.20
2019-03-31T17:59:53.287Z,14.10
2019-03-31T18:02:21.689Z,14.10
2019-03-31T18:04:50.102Z,14.00
2019-03-31T18:07:18.499Z,13.90
2019-03-31T18:09:47.083Z,13.90
2019-03-31T18:12:16.100Z,13.80
2019-03-31T18:14:44.579Z,13.70
2019-03-31T18:17:13.029Z,13.70
2019-03-31T18:19:41.452Z,13.60
2019-03-31T18:22:16.417Z,13.50
2019-03-31T18:24:40.129Z,13.50
2019-03-31T18:27:08.551Z,13.40
2019-03-31T18:29:36.948Z,13.30
2019-03-31T18:32:05.373Z,13.30
2019-03-31T18:34:33.808Z,13.20
2019-03-31T18:37:02.212Z,13.20
2019-03-31T18:39:30.642Z,13.10
2019-03-31T18:41:59.081Z,13.10
2019-03-31T18:44:27.481Z,13.00
2019-03-31T18:46:55.907Z,13.00
2019-03-31T18:49:24.303Z,13.00
2019-03-31T18:51:52.722Z,13.00
2019-03-31T18:54:22.784Z,13.00
2019-03-31T18:57:01.399Z,13.00
2019-03-31T18:59:37.168Z,13.00
2019-03-31T19:02:13.298Z,13.00
2019-03-31T19:04:55.345Z,12.90
2019-03-31T19:07:28.206Z,12.80
2019-03-31T19:10:24.554Z,12.80
2019-03-31T19:13:02.491Z,12.80
2019-03-31T19:15:41.482Z,12.80
2019-03-31T19:18:28.115Z,12.70
2019-03-31T19:21:11.482Z,12.70
2019-03-31T19:23:35.899Z,12.70
2019-03-31T19:26:15.339Z,12.60
2019-03-31T19:28:51.106Z,12.60
2019-03-31T19:31:21.136Z,12.60
2019-03-31T19:34:00.349Z,12.60
2019-03-31T19:36:30.391Z,12.60
2019-03-31T19:39:01.394Z,12.50
2019-03-31T19:41:34.491Z,12.50
2019-03-31T19:44:10.232Z,12.50
2019-03-31T19:46:56.733Z,12.50
2019-03-31T19:49:26.789Z,12.40
2019-03-31T19:52:06.564Z,12.40
2019-03-31T19:54:39.760Z,12.40
2019-03-31T19:57:26.388Z,12.40
2019-03-31T19:59:56.507Z,12.30
2019-03-31T20:02:26.577Z,12.30
2019-03-31T20:05:02.495Z,12.30
2019-03-31T20:07:44.571Z,12.30
2019-03-31T20:10:14.762Z,12.20
2019-03-31T20:13:01.314Z,12.30
2019-03-31T20:15:43.609Z,12.30
2019-03-31T20:18:19.819Z,12.20
2019-03-31T20:20:49.878Z,12.20
2019-03-31T20:23:28.725Z,12.20
2019-03-31T20:26:10.533Z,12.20
2019-03-31T20:28:40.594Z,12.20
2019-03-31T20:31:11.401Z,12.10
2019-03-31T20:33:44.442Z,12.10
2019-03-31T20:36:14.519Z,12.10
2019-03-31T20:38:47.609Z,12.10
2019-03-31T20:41:23.438Z,12.00
2019-03-31T20:43:53.911Z,12.00
2019-03-31T20:46:22.961Z,12.00
2019-03-31T20:48:52.270Z,11.90
2019-03-31T20:51:20.805Z,11.90
2019-03-31T20:53:49.246Z,11.80
2019-03-31T20:56:17.678Z,11.80
2019-03-31T20:58:46.077Z,11.70
2019-03-31T21:01:14.500Z,11.70
2019-03-31T21:03:42.913Z,11.70
2019-03-31T21:06:11.657Z,11.60
2019-03-31T21:08:40.140Z,11.60
2019-03-31T21:11:08.708Z,11.50
2019-03-31T21:13:37.178Z,11.50
2019-03-31T21:16:05.718Z,11.40
2019-03-31T21:18:34.137Z,11.40
2019-03-31T21:21:02.591Z,11.40
2019-03-31T21:23:30.992Z,11.40
2019-03-31T21:25:59.480Z,11.30
2019-03-31T21:28:27.899Z,11.30
2019-03-31T21:30:56.304Z,11.30
2019-03-31T21:33:24.730Z,11.20
2019-03-31T21:35:53.145Z,11.20
2019-03-31T21:38:21.543Z,11.20
2019-03-31T21:40:50.716Z,11.20
2019-03-31T21:43:19.194Z,11.10
2019-03-31T21:45:47.617Z,11.10
2019-03-31T21:48:16.021Z,11.10
2019-03-31T21:50:44.433Z,11.10
2019-03-31T21:53:13.108Z,11.10
2019-03-31T21:55:41.526Z,11.00
2019-03-31T21:58:10.013Z,11.00
2019-03-31T22:00:45.903Z,11.00
2019-03-31T22:03:14.301Z,11.00
2019-03-31T22:05:42.698Z,11.00
2019-03-31T22:08:11.129Z,10.90
2019-03-31T22:10:39.602Z,10.90
2019-03-31T22:13:08.031Z,10.90
2019-03-31T22:15:36.516Z,10.90
2019-03-31T22:18:04.930Z,10.90
2019-03-31T22:20:33.735Z,10.90
2019-03-31T22:23:02.444Z,10.90
2019-03-31T22:25:30.842Z,10.80
2019-03-31T22:27:59.262Z,10.80
2019-03-31T22:30:27.669Z,10.80
2019-03-31T22:32:56.092Z,10.80
2019-03-31T22:35:24.494Z,10.70
2019-03-31T22:37:52.973Z,10.70
2019-03-31T22:40:22.281Z,10.70
2019-03-31T22:42:50.684Z,10.60
2019-03-31T22:45:19.078Z,10.60
2019-03-31T22:47:47.505Z,10.60
2019-03-31T22:50:15.926Z,10.60
2019-03-31T22:52:44.357Z,10.60
2019-03-31T22:55:12.841Z,10.50
2019-03-31T22:57:41.286Z,10.50
2019-03-31T23:00:12.962Z,10.40
2019-03-31T23:02:40.618Z,10.40
2019-03-31T23:05:09.070Z,10.40
2019-03-31T23:07:37.762Z,10.40
2019-03-31T23:10:07.078Z,10.30
2019-03-31T23:12:35.495Z,10.30
2019-03-31T23:15:06.139Z,10.20
2019-03-31T23:17:34.506Z,10.20
2019-03-31T23:20:02.914Z,10.20
2019-03-31T23:22:31.324Z,10.10
2019-03-31T23:24:59.753Z,10.10
2019-03-31T23:27:28.180Z,10.10
2019-03-31T23:29:56.587Z,10.00
2019-03-31T23:32:24.997Z,10.00
2019-03-31T23:34:53.418Z,10.00
2019-03-31T23:37:22.085Z,9.90
2019-03-31T23:39:50.772Z,9.90
2019-03-31T23:42:19.162Z,9.90
2019-03-31T23:44:47.573Z,9.90
2019-03-31T23:47:15.972Z,9.80
2019-03-31T23:49:44.378Z,9.80
2019-03-31T23:52:12.785Z,9.80
2019-03-31T23:54:41.183Z,9.70
2019-03-31T23:57:09.586Z,9.70
2019-03-31T23:59:38.010Z,9.70
